Tiempo atmosférico en la estación meteorológica de Boadilla Fuente San Esteban, Salamanca (785 m.)



Fecha
DESCASC
Temp. máxima en grados centígrados (hora)
DESCASC
Temp. mínima en grados centígrados (hora)
DESCASC
Temp. media en grados centígrados
DESCASC
Racha de viento máxima en m/sg (hora)
DESCASC
Velocidad máxima media en intervalos de 10 minutos(hora)
DESCASC
Precipitaciones diarias en mm
DESCASC
Precipitaciones de 00:00 a 06:00 en mm
DESCASC
Precipitaciones de 06:00 a 12:00 en mm
DESCASC
Precipitaciones de 12:00 a 18:00 en mm
DESCASC
Precipitaciones de 18:00 a 24:00 en mm
DESCASC
20-09-2020 21 (16:30) 13.4 (23:59) 17.2 10 (17:40) 6.39 (16:50) 0.2 0.2 0 0 0
19-09-2020 18.5 (16:00) 13.8 (07:30) 16.2 17.5 (04:30) 9.44 (05:00) 4.4 4.4 0 0 0
17-09-2020 24.9 (14:40) 14.1 (00:00) 19.5 13.06 (22:20) 8.33 (16:30) 5.8 0 0 0 5.8
16-09-2020 27.8 (16:30) 9.9 (07:20) 18.8 8.61 (23:50) 5 (13:20) 0 0 0 0 0
15-09-2020 26.1 (16:00) 12.9 (00:00) 19.5 13.06 (14:50) 5.56 (13:10) 0 0 0 0 0
14-09-2020 28.2 (17:50) 18.7 (00:00) 23.5 11.39 (14:20) 6.39 (16:40) 0 0 0 0 0
13-09-2020 31.6 (15:30) 14.3 (00:00) 23 9.72 (15:40) 6.67 (16:00) 0 0 0 0 0
12-09-2020 31.5 (15:50) 13.1 (07:20) 22.3 9.44 (13:10) 6.39 (13:10) 0 0 0 0 0
11-09-2020 30.5 (16:50) 12.1 (00:00) 21.3 8.06 (17:00) 5 (10:10) 0 0 0 0 0
10-09-2020 29.1 (17:10) 10.2 (00:00) 19.7 7.22 (17:30) 4.72 (10:50) 0 0 0 0 0
09-09-2020 28.8 (18:00) 8.4 (08:00) 18.6 7.22 (17:30) 3.33 (18:10) 0 0 0 0 0
08-09-2020 26.1 (18:30) 8 (00:00) 17.1 9.72 (03:20) 7.22 (03:20) 0 0 0 0 0
07-09-2020 24.2 (17:50) 12 (07:10) 18.1 12.78 (10:10) 8.89 (10:10) 0 0 0 0 0
06-09-2020 30.5 (17:30) 13.6 (00:00) 22.1 9.44 (04:00) 6.94 (04:00) 0 0 0 0 0
05-09-2020 32.2 (16:50) 13.3 (00:00) 22.8 7.78 (18:30) 5.28 (22:50) 0 0 0 0 0
04-09-2020 32.8 (17:00) 11.6 (00:00) 22.2 6.94 (16:40) 4.17 (15:30) 0 0 0 0 0
03-09-2020 31.3 (17:10) 10.9 (00:00) 21.1 6.39 (16:20) 4.17 (02:10) 0 0 0 0 0
02-09-2020 28.1 (17:30) 10.6 (00:00) 19.4 8.06 (14:40) 5.56 (13:00) 0 0 0 0 0
01-09-2020 26.6 (17:50) 11.6 (00:00) 19.1 6.94 (13:30) 3.61 (18:20) 0 0 0 0 0
31-08-2020 25.6 (17:40) 5.6 (00:00) 15.6 7.78 (15:30) 4.44 (14:20) 0 0 0 0 0
30-08-2020 20.7 (17:30) 5.3 (00:00) 13 11.11 (17:40) 6.39 (10:50) 0 0 0 0 0
29-08-2020 21.3 (15:50) 6.2 (00:00) 13.7 11.11 (16:50) 7.22 (16:50) 0.2 0 0 0 0.2
28-08-2020 25.1 (15:50) 14.4 (00:00) 19.8 11.39 (17:10) 7.5 (17:10) 0 0 0 0 0
27-08-2020 32.5 (17:20) 16.2 (00:00) 24.4 8.33 (21:00) 5.28 (19:20) 0 0 0 0 0
26-08-2020 33.6 (17:10) 12.1 (00:00) 22.8 8.33 (17:40) 5 (17:40) 0 0 0 0 0
25-08-2020 34 (17:20) 13.3 (00:00) 23.7 10.28 (18:00) 5.28 (18:50) 0 0 0 0 0
24-08-2020 32.2 (18:20) 12.8 (04:20) 22.5 7.5 (09:40) 5.83 (09:40) 0 0 0 0 0

Gráficas

Temp. máximas Temp. mínimas Temp. medias Precipitaciones Rachas de viento máximas Velocidades máximas media en intervalos de 10 minutos

Datos horarios

Fecha y hora oficial Temperatura (ºC) Velocidad del viento (km/h) Dirección del viento Racha (km/h) Dirección de racha Precipitación (mm) Presión (hPa) Tendencia (hPa) Humedad (%)
2020-09-22 23:00:00 17.2 5 Sudoeste 13 Sudoeste 0 -- -- 75
2020-09-22 22:00:00 17.6 5 Sudoeste 9 Sudoeste 0 -- -- 72
2020-09-22 21:00:00 18.5 7 Sudoeste 27 Sudoeste 0 -- -- 68
2020-09-22 20:00:00 20.3 12 Oeste 20 Oeste 0 -- -- 57
2020-09-22 19:00:00 21.2 9 Oeste 24 Oeste 0 -- -- 53
2020-09-22 18:00:00 21.7 10 Sudoeste 27 Oeste 0 -- -- 50
2020-09-22 17:00:00 22.5 13 Oeste 31 Oeste 0 -- -- 47
2020-09-22 16:00:00 21.6 13 Oeste 30 Oeste 0 -- -- 48
2020-09-22 15:00:00 21 13 Oeste 26 Oeste 0 -- -- 52
2020-09-22 14:00:00 19 12 Sudoeste 24 Sudoeste 0 -- -- 58
2020-09-22 13:00:00 17.4 11 Oeste 20 Sudoeste 0 -- -- 66
2020-09-22 12:00:00 16 11 Oeste 18 Oeste 0 -- -- 75
2020-09-22 11:00:00 14.4 9 Oeste 15 Oeste 0 -- -- 85
2020-09-22 10:00:00 12.6 4 Sudoeste 9 Sudoeste 0 -- -- 91
2020-09-22 09:00:00 11.1 3 Sur 8 Sur 0 -- -- 95
2020-09-22 08:00:00 10.3 6 Sur 8 Sur 0 -- -- 95
2020-09-22 07:00:00 10.7 5 Sur 10 Sur 0 -- -- 95
2020-09-22 06:00:00 11.5 8 Sudoeste 12 Sudoeste 0 -- -- 93
2020-09-22 05:00:00 11.5 8 Sur 12 Sudoeste 0 -- -- 94
2020-09-22 04:00:00 11.9 9 Sudoeste 13 Sur 0 -- -- 92
2020-09-22 03:00:00 12.7 4 Sur 10 Sudoeste 0 -- -- 90
2020-09-22 02:00:00 12.6 6 Sudoeste 11 Sudoeste 0 -- -- 87
2020-09-22 01:00:00 13.9 7 Sudoeste 15 Sudoeste 0 -- -- 80
2020-09-22 00:00:00 13.9 8 Sudoeste 12 Sudoeste 0 -- -- 78
2020-09-21 23:00:00 15.2 5 Sudoeste 8 Sudoeste 0 -- -- 73
2020-09-21 22:00:00 16.5 5 Oeste 7 Oeste 0 -- -- 67
2020-09-21 21:00:00 17.4 4 Oeste 9 Noroeste 0 -- -- 64
2020-09-21 20:00:00 18.7 5 Noroeste 18 Noroeste 0 -- -- 52
2020-09-21 19:00:00 19.2 8 Noroeste 26 Oeste 0 -- -- 49
2020-09-21 18:00:00 20.7 10 Noroeste 24 Oeste 0 -- -- 44
2020-09-21 17:00:00 21 14 Oeste 33 Oeste 0 -- -- 43
2020-09-21 16:00:00 20.6 13 Noroeste 32 Noroeste 0 -- -- 45
2020-09-21 15:00:00 19.6 6 Oeste 23 Sudoeste 0 -- -- 51
2020-09-21 14:00:00 18.3 10 Noroeste 17 Sudoeste 0 -- -- 56
2020-09-21 13:00:00 17 8 Oeste 17 Oeste 0 -- -- 62
2020-09-21 12:00:00 15.6 5 Oeste 14 Oeste 0 -- -- 75
2020-09-21 11:00:00 13.9 8 Oeste 13 Oeste 0 -- -- 83
2020-09-21 10:00:00 12.5 8 Sudoeste 12 Sudoeste 0 -- -- 88
2020-09-21 09:00:00 9.6 4 Sudoeste 7 Sudoeste 0 -- -- 96
2020-09-21 08:00:00 8.8 0 Calma 6 Sudeste 0 -- -- 94
2020-09-21 07:00:00 9.9 5 Sudeste 9 Sudeste 0 -- -- 94
2020-09-21 06:00:00 10.2 8 Sur 11 Sudeste 0 -- -- 93
2020-09-21 05:00:00 11 5 Sudoeste 10 Sudoeste 0 -- -- 90
2020-09-21 04:00:00 10.9 6 Sur 10 Sur 0 -- -- 91
2020-09-21 03:00:00 11.6 5 Sur 9 Sudoeste 0 -- -- 89
2020-09-21 02:00:00 12 5 Sudoeste 11 Sudoeste 0 -- -- 87
2020-09-21 01:00:00 12.6 5 Sur 12 Sudoeste 0 -- -- 85
2020-09-21 00:00:00 13.4 7 Sudoeste 12 Oeste 0 -- -- 82
2020-09-20 23:00:00 14.4 8 Sudoeste 13 Oeste 0 -- -- 79
2020-09-20 22:00:00 15.1 4 Oeste 11 Oeste 0 -- -- 77
2020-09-20 21:00:00 16.7 7 Oeste 23 Oeste 0 -- -- 71
2020-09-20 20:00:00 18.5 14 Oeste 26 Oeste 0 -- -- 64
2020-09-20 19:00:00 19.6 19 Oeste 33 Oeste 0 -- -- 61
2020-09-20 18:00:00 20.5 18 Oeste 36 Oeste 0 -- -- 57
2020-09-20 17:00:00 20.1 20 Oeste 34 Sudoeste 0 -- -- 62
2020-09-20 16:00:00 20.3 23 Oeste 36 Sudoeste 0 -- -- 64
2020-09-20 15:00:00 19.2 21 Sudoeste 33 Sudoeste 0 -- -- 74
2020-09-20 14:00:00 17 16 Oeste 30 Sudoeste 0 -- -- 90
2020-09-20 13:00:00 16.8 18 Sudoeste 29 Sudoeste 0 -- -- 86
2020-09-20 12:00:00 16.6 15 Sudoeste 32 Sudoeste 0 -- -- 88
2020-09-20 11:00:00 15.7 16 Sudoeste 26 Sur 0 -- -- 90
2020-09-20 10:00:00 15.3 15 Sudoeste 24 Sur 0 -- -- 92
2020-09-20 09:00:00 14.8 12 Sudoeste 21 Sudoeste 0 -- -- 95
2020-09-20 08:00:00 14.8 6 Sudoeste 15 Oeste 0 -- -- 96
2020-09-20 07:00:00 14.9 12 Sudoeste 22 Sudoeste 0 -- -- 95
2020-09-20 06:00:00 14.7 5 Sur 13 Sur 0 -- -- 96
2020-09-20 05:00:00 14.7 8 Sur 15 Sudoeste 0.2 -- -- 94
2020-09-20 04:00:00 14.8 7 Sur 23 Sur 0 -- -- 93
2020-09-20 03:00:00 14.9 10 Sudoeste 22 Sudoeste 0 -- -- 92
2020-09-20 02:00:00 15 16 Sudoeste 26 Sudoeste 0 -- -- 91
2020-09-20 01:00:00 14.7 12 Sur 23 Sur 0 -- -- 94
2020-09-20 00:00:00 14.9 10 Sur 19 Sur 0 -- -- 93
2020-09-19 23:00:00 15 9 Sur 21 Sudoeste 0 -- -- 93
2020-09-19 22:00:00 15 10 Sudoeste 19 Sudoeste 0 -- -- 92
2020-09-19 21:00:00 14.9 9 Sudoeste 22 Sudoeste 0 -- -- 93
2020-09-19 20:00:00 14.9 13 Sudoeste 22 Sur 0 -- -- 91
2020-09-19 19:00:00 14.9 11 Sur 21 Sudoeste 0 -- -- 91
2020-09-19 18:00:00 15.3 16 Sudoeste 32 Sudoeste 0 -- -- 88
2020-09-19 17:00:00 16.5 23 Sudoeste 40 Sudoeste 0 -- -- 76
2020-09-19 16:00:00 18.5 20 Sudoeste 35 Sudoeste 0 -- -- 63
2020-09-19 15:00:00 17.7 21 Sudoeste 33 Oeste 0 -- -- 67
2020-09-19 14:00:00 17.4 19 Sudoeste 32 Sudoeste 0 -- -- 70
2020-09-19 13:00:00 16.5 17 Sudoeste 29 Sudoeste 0 -- -- 80
2020-09-19 12:00:00 16 17 Sudoeste 30 Oeste 0 -- -- 86
2020-09-19 11:00:00 14.9 14 Sudoeste 27 Sudoeste 0 -- -- 92
2020-09-19 10:00:00 14.3 17 Sudoeste 30 Sudoeste 0 -- -- 93
2020-09-19 09:00:00 13.9 15 Sudoeste 32 Sudoeste 0 -- -- 94
2020-09-19 08:00:00 13.9 17 Sudoeste 30 Sudoeste 0 -- -- 94
2020-09-19 07:00:00 14 18 Sudoeste 39 Sudoeste 0 -- -- 94
2020-09-19 06:00:00 14.1 24 Sudoeste 54 Sudoeste 0.2 -- -- 94
2020-09-19 05:00:00 14.4 34 Sudoeste 63 Sur 1 -- -- 93
2020-09-19 04:00:00 14.4 19 Sur 33 Sudoeste 1 -- -- 93
2020-09-19 03:00:00 14.4 12 Este 21 Este 0 -- -- 92
2020-09-19 02:00:00 14.4 4 Sur 14 Sudeste 1.8 -- -- 93
2020-09-19 01:00:00 14.4 8 Sudeste 27 Sudeste 0.4 -- -- 92
2020-09-19 00:00:00 14.4 14 Sudeste 27 Sudeste 0.2 -- -- 89
2020-09-18 23:00:00 13.9 17 Sudeste 33 Sudeste 1.2 -- -- 90
2020-09-18 22:00:00 14.5 19 Sudeste 27 Sur 1.4 -- -- 86
2020-09-18 21:00:00 15.7 24 Sur 39 Sur 0.2 -- -- 78
2020-09-18 20:00:00 17.1 13 Sudeste 29 Sudeste 0 -- -- 68
2020-09-18 19:00:00 17.7 21 Sudeste 35 Sudeste 0 -- -- 64
2020-09-18 18:00:00 18.5 21 Sudeste 35 Sudeste 0 -- -- 60
2020-09-18 17:00:00 18.2 21 Sudeste 39 Sur 0 -- -- 64
2020-09-18 16:00:00 19.7 22 Sur 37 Sur 0 -- -- 56
2020-09-18 15:00:00 20.2 21 Sur 37 Sudeste 0 -- -- 53
2020-09-18 14:00:00 19.9 19 Sur 30 Sudeste 0 -- -- 57
2020-09-18 13:00:00 19 12 Sur 23 Sudeste 0 -- -- 62
2020-09-18 12:00:00 17.4 10 Sudeste 17 Sudeste 0 -- -- 71
2020-09-18 11:00:00 16.4 9 Sur 22 Sur 0 -- -- 71
2020-09-18 10:00:00 15.6 6 Sudeste 9 Este 0 -- -- 85
2020-09-18 09:00:00 13.7 4 Sudeste 7 Sur 0.2 -- -- 96
2020-09-18 08:00:00 12.7 0 Calma 6 Oeste 0 -- -- 94
2020-09-18 07:00:00 13.9 3 Norte 9 Oeste 0 -- -- 93
2020-09-18 06:00:00 14.8 4 Sudoeste 13 Sur 0.8 -- -- 91
2020-09-18 05:00:00 15.1 3 Sudoeste 10 Sur 0 -- -- 91
2020-09-18 04:00:00 15 0 Calma 10 Norte 0 -- -- 91
2020-09-18 03:00:00 14.3 4 Este 11 Este 0 -- -- 94
2020-09-18 02:00:00 13.9 4 Este 8 Nordeste 0 -- -- 94
2020-09-18 01:00:00 14.2 5 Este 14 Este 0 -- -- 93
2020-09-18 00:00:00 14.1 4 Este 17 Sudoeste 0.2 -- -- 93
2020-09-17 23:00:00 14.7 7 Sudoeste 47 Sudoeste 5 -- -- 94
2020-09-17 22:00:00 15.5 14 Este 27 Este 0 -- -- 87
2020-09-17 21:00:00 16 15 Sudeste 27 Sudeste 0.4 -- -- 86
2020-09-17 20:00:00 19.1 12 Sur 22 Sur 0.2 -- -- 79
2020-09-17 19:00:00 20.7 4 Sudoeste 32 Sudeste 0 -- -- 64
2020-09-17 18:00:00 21.9 14 Sur 36 Sur 0 -- -- 60
2020-09-17 17:00:00 22.6 23 Sur 42 Sur 0 -- -- 57
2020-09-17 16:00:00 23.5 24 Sur 46 Sur 0 -- -- 53
2020-09-17 15:00:00 23.9 17 Sur 36 Sur 0 -- -- 48
2020-09-17 14:00:00 23.5 15 Sur 27 Sur 0 -- -- 50
2020-09-17 13:00:00 22.5 14 Sur 30 Sur 0 -- -- 54
2020-09-17 12:00:00 21.2 22 Sur 32 Sudeste 0 -- -- 58
2020-09-17 11:00:00 21.1 17 Sur 30 Sudeste 0 -- -- 58
2020-09-17 10:00:00 21.3 18 Sudeste 27 Sudeste 0 -- -- 58
2020-09-17 09:00:00 19.5 12 Sur 27 Sur 0 -- -- 63
2020-09-17 08:00:00 20.1 17 Sur 28 Sur 0 -- -- 59
2020-09-17 07:00:00 20.2 14 Sudeste 23 Sudeste 0 -- -- 56
2020-09-17 06:00:00 20.5 10 Sudeste 31 Sudeste 0 -- -- 54
2020-09-17 05:00:00 20.7 12 Sudeste 30 Sudeste 0 -- -- 52
2020-09-17 04:00:00 20.3 16 Sudeste 27 Este 0 -- -- 51
2020-09-17 03:00:00 19 10 Este 17 Sudeste 0 -- -- 55
2020-09-17 02:00:00 20.3 13 Sudeste 20 Este 0 -- -- 54
2020-09-17 01:00:00 21.2 9 Sudeste 25 Este 0 -- -- 50
2020-09-17 00:00:00 20.3 14 Este 31 Este 0 -- -- 57
2020-09-16 23:00:00 21.2 2 Oeste 9 Norte 0 -- -- 45
2020-09-16 22:00:00 22.2 3 Noroeste 10 Este 0 -- -- 43
2020-09-16 21:00:00 23.5 4 Sudoeste 8 Sudoeste 0 -- -- 39
2020-09-16 20:00:00 25 5 Sur 19 Sur 0 -- -- 35
2020-09-16 19:00:00 26.3 10 Sur 21 Sudeste 0 -- -- 33
2020-09-16 18:00:00 27.3 7 Sur 17 Sudeste 0 -- -- 34
2020-09-16 17:00:00 27.6 7 Nordeste 22 Este 0 -- -- 30
2020-09-16 16:00:00 27.6 10 Este 21 Este 0 -- -- 30
2020-09-16 15:00:00 26.7 7 Sudeste 23 Sur 0 -- -- 31
2020-09-16 14:00:00 26.3 8 Sudeste 26 Sur 0 -- -- 37
2020-09-16 13:00:00 24.7 10 Sur 23 Este 0 -- -- 41
2020-09-16 12:00:00 24.7 10 Este 25 Este 0 -- -- 42
2020-09-16 11:00:00 22 12 Este 18 Este 0 -- -- 49
2020-09-16 10:00:00 18.1 11 Este 19 Este 0 -- -- 60
2020-09-16 09:00:00 13 3 Nordeste 8 Este 0 -- -- 79
2020-09-16 08:00:00 11.8 8 Este 9 Este 0 -- -- 81
2020-09-16 07:00:00 10.2 4 Este 6 Oeste 0 -- -- 82
2020-09-16 06:00:00 11.6 2 Norte 14 Sudeste 0 -- -- 76
2020-09-16 05:00:00 13.3 8 Sudeste 13 Sudeste 0 -- -- 74
2020-09-16 04:00:00 12.5 0 Calma 9 Sudeste 0 -- -- 72
2020-09-16 03:00:00 14.4 5 Sur 13 Sudeste 0 -- -- 67
2020-09-16 02:00:00 14.6 12 Sudeste 14 Sudeste 0 -- -- 67
2020-09-16 01:00:00 14.8 3 Sudeste 13 Sudeste 0 -- -- 66
2020-09-16 00:00:00 16.8 11 Sudeste 13 Sudeste 0 -- -- 60
2020-09-15 23:00:00 17.9 8 Sudeste 10 Sudeste 0 -- -- 55
2020-09-15 22:00:00 19.6 6 Sur 11 Sur 0 -- -- 50
2020-09-15 21:00:00 21.9 8 Sur 21 Sudoeste 0 -- -- 44
2020-09-15 20:00:00 24 14 Sur 31 Sudoeste 0 -- -- 42
2020-09-15 19:00:00 25.5 12 Sur 29 Sudoeste 0 -- -- 39
2020-09-15 18:00:00 26.1 14 Sudoeste 43 Oeste 0 -- -- 37
2020-09-15 17:00:00 25.6 17 Sur 30 Sudoeste 0 -- -- 39
2020-09-15 16:00:00 26.1 16 Sudoeste 37 Sudoeste 0 -- -- 38
2020-09-15 15:00:00 25.5 13 Sudoeste 47 Sur 0 -- -- 40
2020-09-15 14:00:00 24.8 16 Sur 33 Sudoeste 0 -- -- 42
2020-09-15 13:00:00 24.1 18 Sur 34 Sur 0 -- -- 44
2020-09-15 12:00:00 23.3 18 Sur 27 Sur 0 -- -- 47
2020-09-15 11:00:00 20.8 4 Sudeste 10 Sudeste 0 -- -- 59
2020-09-15 10:00:00 17.6 4 Este 8 Este 0 -- -- 77
2020-09-15 09:00:00 14.8 5 Sudeste 9 Sudeste 0 -- -- 85
2020-09-15 08:00:00 13.3 6 Sudeste 10 Sudeste 0 -- -- 88
2020-09-15 07:00:00 13.4 4 Sudeste 8 Sur 0 -- -- 86
2020-09-15 06:00:00 14.3 5 Sur 7 Sudoeste 0 -- -- 84
2020-09-15 05:00:00 15.9 6 Sudoeste 9 Oeste 0 -- -- 81
2020-09-15 04:00:00 16.2 5 Sudoeste 8 Sur 0 -- -- 82
2020-09-15 03:00:00 16.3 5 Sur 9 Sur 0 -- -- 81
2020-09-15 02:00:00 16.6 3 Sur 9 Sudoeste 0 -- -- 74
2020-09-15 01:00:00 18 4 Sur 9 Noroeste 0 -- -- 68
2020-09-15 00:00:00 20 5 Noroeste 17 Oeste 0 -- -- 61
2020-09-14 23:00:00 21.3 7 Sudeste 14 Sudeste 0 -- -- 53
2020-09-14 22:00:00 22.1 7 Sur 18 Sudoeste 0 -- -- 47
2020-09-14 21:00:00 24 9 Sudoeste 23 Sudoeste 0 -- -- 42
2020-09-14 20:00:00 25.3 10 Sur 26 Sudeste 0 -- -- 43
2020-09-14 19:00:00 25.6 15 Sur 32 Sudoeste 0 -- -- 43
2020-09-14 18:00:00 27.8 21 Sur 38 Sudoeste 0 -- -- 36
2020-09-14 17:00:00 27.2 15 Sudoeste 37 Sudoeste 0 -- -- 38
2020-09-14 16:00:00 26.8 17 Sur 36 Sur 0 -- -- 38
2020-09-14 15:00:00 26.3 22 Sur 41 Sudoeste 0 -- -- 39
2020-09-14 14:00:00 26.3 21 Sur 37 Sur 0 -- -- 42
2020-09-14 13:00:00 24.7 11 Sudoeste 30 Sudoeste 0 -- -- 45
2020-09-14 12:00:00 22.7 4 Oeste 11 Oeste 0 -- -- 57
2020-09-14 11:00:00 21.1 4 Sudoeste 7 Oeste 0 -- -- 62
2020-09-14 10:00:00 20 0 Calma 7 Sudoeste 0 -- -- 65
2020-09-14 09:00:00 19.4 4 Sudoeste 8 Sudoeste 0 -- -- 66
2020-09-14 08:00:00 19.2 4 Sur 8 Sudoeste 0 -- -- 64
2020-09-14 07:00:00 19.5 3 Este 13 Sudoeste 0 -- -- 59
2020-09-14 06:00:00 19.7 0 Calma 9 Sudoeste 0 -- -- 52
2020-09-14 05:00:00 20.5 3 Oeste 11 Nordeste 0 -- -- 49
2020-09-14 04:00:00 18.8 5 Noroeste 9 Sudoeste 0 -- -- 49
2020-09-14 03:00:00 19.6 4 Sur 21 Sudoeste 0 -- -- 46
2020-09-14 02:00:00 21.7 7 Sudeste 17 Sudeste 0 -- -- 41
2020-09-14 01:00:00 21.7 8 Sudeste 17 Sudeste 0 -- -- 41
2020-09-14 00:00:00 23 11 Sudeste 16 Sudeste 0 -- -- 38
2020-09-13 23:00:00 23.4 10 Sudeste 13 Sur 0 -- -- 37
2020-09-13 22:00:00 25.3 10 Sudeste 16 Sudeste 0 -- -- 34
2020-09-13 21:00:00 26.3 8 Sudeste 20 Sur 0 -- -- 32
2020-09-13 20:00:00 29.5 17 Sur 30 Sur 0 -- -- 28
2020-09-13 19:00:00 30.4 14 Sur 32 Sudoeste 0 -- -- 26
2020-09-13 18:00:00 30.7 16 Sudoeste 26 Sur 0 -- -- 26
2020-09-13 17:00:00 30 17 Sur 35 Sur 0 -- -- 27
2020-09-13 16:00:00 31.2 24 Sur 35 Sur 0 -- -- 26
2020-09-13 15:00:00 31.3 14 Sur 31 Sudeste 0 -- -- 25
2020-09-13 14:00:00 31.2 17 Sur 27 Sudeste 0 -- -- 24
2020-09-13 13:00:00 29.6 16 Sur 33 Sur 0 -- -- 24
2020-09-13 12:00:00 29.3 12 Oeste 23 Sudeste 0 -- -- 28
2020-09-13 11:00:00 25.8 8 Nordeste 13 Este 0 -- -- 30
2020-09-13 10:00:00 20.6 9 Este 13 Nordeste 0 -- -- 35
2020-09-13 09:00:00 15.8 0 Calma 12 Este 0 -- -- 42
2020-09-13 08:00:00 14.6 4 Sudeste 13 Nordeste 0 -- -- 42
2020-09-13 07:00:00 15.5 9 Este 14 Este 0 -- -- 40
2020-09-13 06:00:00 14.7 7 Este 10 Nordeste 0 -- -- 43
2020-09-13 05:00:00 15.6 4 Nordeste 8 Este 0 -- -- 41
2020-09-13 04:00:00 16.7 3 Nordeste 17 Este 0 -- -- 38
2020-09-13 03:00:00 19 13 Este 19 Este 0 -- -- 34
2020-09-13 02:00:00 18.8 11 Este 18 Este 0 -- -- 35
2020-09-13 01:00:00 20.1 13 Este 15 Este 0 -- -- 36
2020-09-13 00:00:00 21.2 11 Este 15 Este 0 -- -- 35
2020-09-12 23:00:00 20.4 5 Sudeste 10 Sudeste 0 -- -- 36
2020-09-12 22:00:00 23.3 7 Este 12 Este 0 -- -- 31
2020-09-12 21:00:00 25.5 7 Este 13 Nordeste 0 -- -- 28
2020-09-12 20:00:00 28.8 11 Nordeste 21 Nordeste 0 -- -- 23
2020-09-12 19:00:00 31 14 Nordeste 29 Nordeste 0 -- -- 21
2020-09-12 18:00:00 30.6 12 Nordeste 26 Norte 0 -- -- 21
2020-09-12 17:00:00 31.2 13 Nordeste 29 Nordeste 0 -- -- 21
2020-09-12 16:00:00 31.3 15 Nordeste 29 Nordeste 0 -- -- 21
2020-09-12 15:00:00 31.4 19 Nordeste 33 Norte 0 -- -- 22
2020-09-12 14:00:00 30.2 21 Nordeste 34 Nordeste 0 -- -- 23
2020-09-12 13:00:00 29.1 22 Nordeste 31 Nordeste 0 -- -- 24
2020-09-12 12:00:00 25.8 19 Este 24 Este 0 -- -- 30
2020-09-12 11:00:00 21.7 14 Este 22 Este 0 -- -- 37
2020-09-12 10:00:00 18.8 15 Este 25 Este 0 -- -- 42
2020-09-12 09:00:00 16.3 16 Este 26 Este 0 -- -- 46
2020-09-12 08:00:00 14.7 13 Este 20 Nordeste 0 -- -- 52
2020-09-12 07:00:00 13.9 11 Este 15 Este 0 -- -- 54
2020-09-12 06:00:00 14.7 8 Este 14 Este 0 -- -- 51
2020-09-12 05:00:00 16.2 11 Este 17 Este 0 -- -- 47
2020-09-12 04:00:00 16 11 Este 15 Este 0 -- -- 47
2020-09-12 03:00:00 17.1 11 Este 14 Este 0 -- -- 44
2020-09-12 02:00:00 17.8 9 Este 13 Este 0 -- -- 42
2020-09-12 01:00:00 19.4 8 Sudeste 12 Este 0 -- -- 40
2020-09-12 00:00:00 20.5 10 Este 14 Este 0 -- -- 37
2020-09-11 23:00:00 20.9 10 Este 13 Este 0 -- -- 36
2020-09-11 22:00:00 21.8 10 Nordeste 13 Este 0 -- -- 34
2020-09-11 21:00:00 23.8 9 Nordeste 16 Nordeste 0 -- -- 30
2020-09-11 20:00:00 26.4 4 Norte 17 Norte 0 -- -- 27
2020-09-11 19:00:00 28.7 7 Norte 18 Noroeste 0 -- -- 23
2020-09-11 18:00:00 30.1 8 Norte 19 Norte 0 -- -- 22
2020-09-11 17:00:00 30 12 Norte 29 Nordeste 0 -- -- 22
2020-09-11 16:00:00 29.7 10 Oeste 19 Noroeste 0 -- -- 23
2020-09-11 15:00:00 29.3 12 Noroeste 17 Noroeste 0 -- -- 23
2020-09-11 14:00:00 28.8 8 Sur 22 Nordeste 0 -- -- 25
2020-09-11 13:00:00 27.4 12 Nordeste 22 Nordeste 0 -- -- 29
2020-09-11 12:00:00 24.1 13 Nordeste 19 Nordeste 0 -- -- 37
2020-09-11 11:00:00 20.6 12 Nordeste 24 Nordeste 0 -- -- 43
2020-09-11 10:00:00 17.9 14 Este 21 Este 0 -- -- 49
2020-09-11 09:00:00 15.1 14 Este 21 Este 0 -- -- 52
2020-09-11 08:00:00 12.7 9 Este 19 Este 0 -- -- 57
2020-09-11 07:00:00 13.2 15 Este 19 Nordeste 0 -- -- 55
2020-09-11 06:00:00 12.5 5 Este 8 Este 0 -- -- 56
2020-09-11 05:00:00 13.8 5 Nordeste 14 Este 0 -- -- 52
2020-09-11 04:00:00 15 8 Este 15 Este 0 -- -- 49
2020-09-11 03:00:00 16.8 6 Sudeste 14 Sudeste 0 -- -- 45
2020-09-11 02:00:00 17.6 8 Sudeste 15 Sudeste 0 -- -- 43
2020-09-11 01:00:00 18.1 10 Sudeste 14 Sudeste 0 -- -- 41
2020-09-11 00:00:00 18.7 7 Sudeste 12 Sudeste 0 -- -- 40
2020-09-10 23:00:00 20.3 11 Sudeste 14 Sudeste 0 -- -- 36
2020-09-10 22:00:00 20.6 9 Este 11 Este 0 -- -- 36
2020-09-10 21:00:00 23.4 9 Este 15 Este 0 -- -- 32
2020-09-10 20:00:00 27.2 13 Este 22 Nordeste 0 -- -- 26
2020-09-10 19:00:00 28.4 9 Nordeste 22 Nordeste 0 -- -- 25
2020-09-10 18:00:00 28.8 10 Nordeste 26 Este 0 -- -- 25
2020-09-10 17:00:00 28.6 8 Este 22 Nordeste 0 -- -- 26
2020-09-10 16:00:00 28.6 9 Este 19 Este 0 -- -- 26
2020-09-10 15:00:00 27.8 9 Este 22 Nordeste 0 -- -- 27
2020-09-10 14:00:00 26.9 11 Nordeste 21 Nordeste 0 -- -- 30
2020-09-10 13:00:00 25.6 11 Norte 17 Norte 0 -- -- 34
2020-09-10 12:00:00 23.3 12 Nordeste 19 Nordeste 0 -- -- 41
2020-09-10 11:00:00 20.2 14 Nordeste 21 Nordeste 0 -- -- 47
2020-09-10 10:00:00 17.5 11 Nordeste 16 Este 0 -- -- 51
2020-09-10 09:00:00 12.4 2 Nordeste 7 Este 0 -- -- 55
2020-09-10 08:00:00 10.6 4 Este 8 Este 0 -- -- 57
2020-09-10 07:00:00 11.1 8 Este 12 Este 0 -- -- 56
2020-09-10 06:00:00 10.4 0 Calma -- -- 0 -- -- 55
2020-09-10 05:00:00 10.2 0 Calma 13 Oeste 0 -- -- 57
2020-09-10 04:00:00 11.8 6 Sur 12 Oeste 0 -- -- 51
2020-09-10 03:00:00 13 5 Este 12 Este 0 -- -- 48
2020-09-10 02:00:00 13.3 0 Calma 9 Sudeste 0 -- -- 46
2020-09-10 01:00:00 16.8 9 Sudeste 13 Sudeste 0 -- -- 38
2020-09-10 00:00:00 18.7 9 Sudeste 14 Sudeste 0 -- -- 35
2020-09-09 23:00:00 19.9 10 Este 11 Este 0 -- -- 32
2020-09-09 22:00:00 18.8 0 Calma 5 Noroeste 0 -- -- 32
2020-09-09 21:00:00 23.1 5 Noroeste 14 Noroeste 0 -- -- 27
2020-09-09 20:00:00 27.1 8 Noroeste 16 Noroeste 0 -- -- 22
2020-09-09 19:00:00 28.2 9 Noroeste 23 Oeste 0 -- -- 21
2020-09-09 18:00:00 28.8 8 Oeste 26 Nordeste 0 -- -- 22
2020-09-09 17:00:00 28.3 8 Oeste 22 Oeste 0 -- -- 22
2020-09-09 16:00:00 28 9 Noroeste 22 Norte 0 -- -- 23
2020-09-09 15:00:00 27.4 8 Oeste 21 Oeste 0 -- -- 24
2020-09-09 14:00:00 26.4 9 Noroeste 18 Noroeste 0 -- -- 25
2020-09-09 13:00:00 25 8 Noroeste 18 Noroeste 0 -- -- 28
2020-09-09 12:00:00 22.8 8 Norte 14 Norte 0 -- -- 32
2020-09-09 11:00:00 19.8 5 Noroeste 8 Noroeste 0 -- -- 37
2020-09-09 10:00:00 16.1 2 Norte 5 Norte 0 -- -- 46
2020-09-09 09:00:00 11.5 0 Calma 9 Este 0 -- -- 56
2020-09-09 08:00:00 8.4 0 Calma 12 Este 0 -- -- 62
2020-09-09 07:00:00 8.8 8 Este 12 Sudeste 0 -- -- 59
2020-09-09 06:00:00 10.9 8 Sudeste 12 Sudeste 0 -- -- 55
2020-09-09 05:00:00 11 7 Sudeste 10 Sudeste 0 -- -- 52
2020-09-09 04:00:00 11 7 Sudeste 9 Sudeste 0 -- -- 49
2020-09-09 03:00:00 11.9 8 Sudeste 12 Oeste 0 -- -- 48
2020-09-09 02:00:00 11.8 3 Sur 6 Sudoeste 0 -- -- 45
2020-09-09 01:00:00 12.2 0 Calma 7 Oeste 0 -- -- 42
2020-09-09 00:00:00 13.9 0 Calma 7 Sur 0 -- -- 37
2020-09-08 23:00:00 15.7 5 Sur 7 Sudeste 0 -- -- 32
2020-09-08 22:00:00 18 2 Nordeste 9 Nordeste 0 -- -- 29
2020-09-08 21:00:00 20.7 8 Nordeste 16 Nordeste 0 -- -- 25
2020-09-08 20:00:00 24.5 14 Nordeste 23 Nordeste 0 -- -- 21
2020-09-08 19:00:00 25.7 13 Nordeste 22 Nordeste 0 -- -- 23
2020-09-08 18:00:00 25.9 9 Norte 28 Nordeste 0 -- -- 24
2020-09-08 17:00:00 25.4 11 Este 22 Nordeste 0 -- -- 23
2020-09-08 16:00:00 24.7 7 Nordeste 30 Nordeste 0 -- -- 26
2020-09-08 15:00:00 22.8 11 Nordeste 25 Nordeste 0 -- -- 31
2020-09-08 14:00:00 21.3 18 Nordeste 30 Nordeste 0 -- -- 33
2020-09-08 13:00:00 19.3 17 Nordeste 28 Nordeste 0 -- -- 39
2020-09-08 12:00:00 16.9 14 Nordeste 24 Nordeste 0 -- -- 47
2020-09-08 11:00:00 14.5 18 Nordeste 26 Nordeste 0 -- -- 55
2020-09-08 10:00:00 11.7 18 Este 24 Este 0 -- -- 68
2020-09-08 09:00:00 9.4 13 Nordeste 17 Nordeste 0 -- -- 75
2020-09-08 08:00:00 8 8 Este 19 Este 0 -- -- 79
2020-09-08 07:00:00 8.9 14 Nordeste 27 Este 0 -- -- 74
2020-09-08 06:00:00 9.6 13 Este 26 Nordeste 0 -- -- 70
2020-09-08 05:00:00 10.7 14 Nordeste 30 Este 0 -- -- 66
2020-09-08 04:00:00 11.7 21 Nordeste 35 Nordeste 0 -- -- 62
2020-09-08 03:00:00 13 21 Nordeste 31 Este 0 -- -- 57
2020-09-08 02:00:00 13.8 18 Este 27 Este 0 -- -- 54
2020-09-08 01:00:00 14.7 14 Este 22 Este 0 -- -- 51
2020-09-08 00:00:00 16.2 18 Este 28 Este 0 -- -- 49
2020-09-07 23:00:00 17.3 17 Nordeste 28 Nordeste 0 -- -- 43
2020-09-07 22:00:00 18.8 18 Nordeste 29 Nordeste 0 -- -- 38
2020-09-07 21:00:00 20.4 22 Nordeste 33 Nordeste 0 -- -- 34
2020-09-07 20:00:00 22.5 24 Nordeste 36 Nordeste 0 -- -- 31
2020-09-07 19:00:00 23.4 23 Nordeste 36 Nordeste 0 -- -- 29
2020-09-07 18:00:00 24 27 Nordeste 44 Nordeste 0 -- -- 29
2020-09-07 17:00:00 23.8 29 Nordeste 44 Nordeste 0 -- -- 30
2020-09-07 16:00:00 23.4 28 Nordeste 40 Nordeste 0 -- -- 32
2020-09-07 15:00:00 22.7 28 Nordeste 41 Nordeste 0 -- -- 33
2020-09-07 14:00:00 21.3 28 Nordeste 43 Nordeste 0 -- -- 38
2020-09-07 13:00:00 19.7 28 Nordeste 42 Este 0 -- -- 45
2020-09-07 12:00:00 17.6 28 Este 44 Este 0 -- -- 52
2020-09-07 11:00:00 16.1 30 Nordeste 46 Este 0 -- -- 58
2020-09-07 10:00:00 14.7 28 Este 42 Este 0 -- -- 63
2020-09-07 09:00:00 12.7 26 Este 36 Este 0 -- -- 69
2020-09-07 08:00:00 12 27 Este 37 Nordeste 0 -- -- 72
2020-09-07 07:00:00 12.1 19 Este 33 Este 0 -- -- 72
2020-09-07 06:00:00 12.6 19 Este 28 Este 0 -- -- 70
2020-09-07 05:00:00 12.9 12 Nordeste 24 Este 0 -- -- 66
2020-09-07 04:00:00 13.7 13 Nordeste 30 Nordeste 0 -- -- 62
2020-09-07 03:00:00 14.8 19 Este 36 Este 0 -- -- 59
2020-09-07 02:00:00 15.9 23 Nordeste 36 Nordeste 0 -- -- 55
2020-09-07 01:00:00 18.2 23 Este 34 Este 0 -- -- 49
2020-09-07 00:00:00 20.4 21 Este 30 Este 0 -- -- 49
2020-09-06 23:00:00 22.3 18 Este 29 Este 0 -- -- 45
2020-09-06 22:00:00 23.4 14 Nordeste 18 Nordeste 0 -- -- 43
2020-09-06 21:00:00 24.8 12 Norte 20 Norte 0 -- -- 38
2020-09-06 20:00:00 28.6 15 Norte 26 Norte 0 -- -- 32
2020-09-06 19:00:00 30.1 9 Noroeste 25 Noroeste 0 -- -- 28
2020-09-06 18:00:00 29.8 12 Norte 21 Norte 0 -- -- 29
2020-09-06 17:00:00 30.2 5 Norte 18 Este 0 -- -- 31
2020-09-06 16:00:00 29 9 Norte 28 Nordeste 0 -- -- 33
2020-09-06 15:00:00 27.5 11 Nordeste 23 Nordeste 0 -- -- 38
2020-09-06 14:00:00 25.4 14 Nordeste 27 Nordeste 0 -- -- 43
2020-09-06 13:00:00 23.3 17 Nordeste 27 Nordeste 0 -- -- 49
2020-09-06 12:00:00 21.3 16 Nordeste 24 Nordeste 0 -- -- 55
2020-09-06 11:00:00 18.9 14 Nordeste 27 Este 0 -- -- 63
2020-09-06 10:00:00 16.4 21 Este 31 Nordeste 0 -- -- 72
2020-09-06 09:00:00 14.4 15 Este 22 Nordeste 0 -- -- 80
2020-09-06 08:00:00 13.7 11 Este 23 Este 0 -- -- 83
2020-09-06 07:00:00 13.8 10 Este 18 Nordeste 0 -- -- 81
2020-09-06 06:00:00 14.5 12 Nordeste 23 Nordeste 0 -- -- 79
2020-09-06 05:00:00 15.4 15 Nordeste 32 Nordeste 0 -- -- 75
2020-09-06 04:00:00 16.5 25 Nordeste 34 Nordeste 0 -- -- 72
2020-09-06 03:00:00 18.3 17 Nordeste 27 Nordeste 0 -- -- 63
2020-09-06 02:00:00 19.4 15 Nordeste 27 Este 0 -- -- 58
2020-09-06 01:00:00 21.7 19 Este 27 Este 0 -- -- 51
2020-09-06 00:00:00 22.7 14 Este 27 Nordeste 0 -- -- 45
2020-09-05 23:00:00 24.8 19 Nordeste 28 Nordeste 0 -- -- 40
2020-09-05 22:00:00 23.2 9 Nordeste 11 Nordeste 0 -- -- 33
2020-09-05 21:00:00 26 9 Norte 14 Norte 0 -- -- 29
2020-09-05 20:00:00 30.4 10 Nordeste 23 Norte 0 -- -- 23
2020-09-05 19:00:00 31.6 9 Norte 28 Norte 0 -- -- 22
2020-09-05 18:00:00 32 12 Noroeste 24 Noroeste 0 -- -- 22
2020-09-05 17:00:00 32.1 10 Nordeste 22 Este 0 -- -- 22
2020-09-05 16:00:00 32.1 7 Sudeste 28 Este 0 -- -- 21
2020-09-05 15:00:00 31.5 10 Norte 24 Norte 0 -- -- 23
2020-09-05 14:00:00 30.6 12 Noroeste 24 Norte 0 -- -- 24
2020-09-05 13:00:00 29.1 8 Norte 18 Norte 0 -- -- 30
2020-09-05 12:00:00 26.5 5 Nordeste 13 Nordeste 0 -- -- 34
2020-09-05 11:00:00 24.2 0 Calma 9 Norte 0 -- -- 38
2020-09-05 10:00:00 20.6 0 Calma -- -- 0 -- -- 44
2020-09-05 09:00:00 15.3 0 Calma 6 Sudeste 0 -- -- 57
2020-09-05 08:00:00 14 2 Sudeste 12 Sudeste 0 -- -- 60
2020-09-05 07:00:00 14.7 4 Sudeste 11 Sudeste 0 -- -- 57
2020-09-05 06:00:00 15.4 9 Sudeste 10 Sudeste 0 -- -- 57
2020-09-05 05:00:00 15.5 4 Sudeste 5 Sudeste 0 -- -- 55
2020-09-05 04:00:00 17.4 2 Sur 9 Sur 0 -- -- 49
2020-09-05 03:00:00 20 9 Sur 17 Sur 0 -- -- 44
2020-09-05 02:00:00 20.1 12 Sudoeste 17 Sur 0 -- -- 45
2020-09-05 01:00:00 20.3 9 Sudoeste 11 Sudoeste 0 -- -- 44
2020-09-05 00:00:00 21.4 5 Sudoeste 10 Sudoeste 0 -- -- 39
2020-09-04 23:00:00 23.2 6 Sudoeste 19 Sudoeste 0 -- -- 35
2020-09-04 22:00:00 24.7 9 Sudoeste 13 Sudoeste 0 -- -- 31
2020-09-04 21:00:00 27.5 7 Sudoeste 14 Sudoeste 0 -- -- 26
2020-09-04 20:00:00 31.2 9 Sudoeste 23 Sudoeste 0 -- -- 23
2020-09-04 19:00:00 32.3 9 Oeste 22 Oeste 0 -- -- 21
2020-09-04 18:00:00 32.6 11 Oeste 24 Oeste 0 -- -- 21
2020-09-04 17:00:00 32.8 9 Oeste 25 Sudoeste 0 -- -- 21
2020-09-04 16:00:00 32.4 9 Oeste 24 Sudeste 0 -- -- 21
2020-09-04 15:00:00 31.9 9 Oeste 24 Oeste 0 -- -- 22
2020-09-04 14:00:00 31.1 10 Sudoeste 21 Sudoeste 0 -- -- 23
2020-09-04 13:00:00 30 6 Norte 18 Oeste 0 -- -- 25
2020-09-04 12:00:00 28.4 4 Oeste 10 Oeste 0 -- -- 26
2020-09-04 11:00:00 25.2 5 Norte 10 Norte 0 -- -- 29
2020-09-04 10:00:00 21.4 6 Nordeste 9 Nordeste 0 -- -- 34
2020-09-04 09:00:00 15.9 6 Este 9 Este 0 -- -- 46
2020-09-04 08:00:00 11.8 0 Calma 8 Oeste 0 -- -- 55
2020-09-04 07:00:00 13.1 0 Calma 13 Sudeste 0 -- -- 50
2020-09-04 06:00:00 13.9 6 Sudeste 10 Sudeste 0 -- -- 49
2020-09-04 05:00:00 14 3 Sudeste 13 Sudeste 0 -- -- 50
2020-09-04 04:00:00 15.5 7 Sudeste 12 Sudeste 0 -- -- 46
2020-09-04 03:00:00 15.5 5 Oeste 9 Sudeste 0 -- -- 45
2020-09-04 02:00:00 16.3 0 Calma 5 Este 0 -- -- 44
2020-09-04 01:00:00 18.6 0 Calma 12 Sudeste 0 -- -- 38
2020-09-04 00:00:00 19.2 6 Sudeste 12 Este 0 -- -- 37
2020-09-03 23:00:00 19.5 0 Calma 9 Sur 0 -- -- 35
2020-09-03 22:00:00 23.2 6 Este 13 Nordeste 0 -- -- 28
2020-09-03 21:00:00 26 2 Nordeste 9 Norte 0 -- -- 25
2020-09-03 20:00:00 30.1 6 Norte 14 Norte 0 -- -- 20
2020-09-03 19:00:00 30.8 8 Norte 17 Noroeste 0 -- -- 19
2020-09-03 18:00:00 31.1 6 Noroeste 20 Oeste 0 -- -- 20
2020-09-03 17:00:00 30.7 8 Norte 23 Oeste 0 -- -- 20
2020-09-03 16:00:00 30.3 7 Sudoeste 20 Oeste 0 -- -- 20
2020-09-03 15:00:00 29.5 7 Noroeste 19 Oeste 0 -- -- 22
2020-09-03 14:00:00 28.6 7 Oeste 14 Noroeste 0 -- -- 23
2020-09-03 13:00:00 27.5 8 Este 17 Nordeste 0 -- -- 25
2020-09-03 12:00:00 25.9 8 Nordeste 14 Este 0 -- -- 30
2020-09-03 11:00:00 22.4 9 Nordeste 14 Este 0 -- -- 35
2020-09-03 10:00:00 19 9 Nordeste 14 Este 0 -- -- 40
2020-09-03 09:00:00 14.3 7 Nordeste 12 Este 0 -- -- 50
2020-09-03 08:00:00 10.9 5 Este 13 Este 0 -- -- 57
2020-09-03 07:00:00 11.1 8 Este 10 Este 0 -- -- 56
2020-09-03 06:00:00 11.7 3 Este 8 Este 0 -- -- 53
2020-09-03 05:00:00 11.9 0 Calma 9 Este 0 -- -- 52
2020-09-03 04:00:00 12.8 3 Nordeste 9 Nordeste 0 -- -- 49
2020-09-03 03:00:00 15.2 8 Este 18 Este 0 -- -- 44
2020-09-03 02:00:00 16.5 12 Este 15 Este 0 -- -- 41
2020-09-03 01:00:00 16.7 6 Sudeste 12 Este 0 -- -- 39
2020-09-03 00:00:00 18.1 11 Este 13 Este 0 -- -- 37
2020-09-02 23:00:00 19 10 Este 14 Este 0 -- -- 35
2020-09-02 22:00:00 19.7 10 Nordeste 12 Nordeste 0 -- -- 32
2020-09-02 21:00:00 23.1 9 Nordeste 16 Nordeste 0 -- -- 26
2020-09-02 20:00:00 26.9 12 Nordeste 20 Nordeste 0 -- -- 22
2020-09-02 19:00:00 27.8 12 Nordeste 19 Nordeste 0 -- -- 21
2020-09-02 18:00:00 27.9 10 Nordeste 22 Nordeste 0 -- -- 21
2020-09-02 17:00:00 27.6 9 Norte 22 Norte 0 -- -- 22
2020-09-02 16:00:00 27.2 9 Norte 21 Nordeste 0 -- -- 23
2020-09-02 15:00:00 26.2 12 Este 29 Este 0 -- -- 25
2020-09-02 14:00:00 25.7 14 Nordeste 27 Este 0 -- -- 31
2020-09-02 13:00:00 23.5 20 Nordeste 26 Este 0 -- -- 35
2020-09-02 12:00:00 20.9 15 Nordeste 27 Este 0 -- -- 43
2020-09-02 11:00:00 17.9 18 Nordeste 24 Nordeste 0 -- -- 51
2020-09-02 10:00:00 14.7 17 Nordeste 24 Este 0 -- -- 62
2020-09-02 09:00:00 12.4 12 Este 18 Nordeste 0 -- -- 73
2020-09-02 08:00:00 10.7 10 Nordeste 16 Nordeste 0 -- -- 80
2020-09-02 07:00:00 10.8 9 Este 15 Este 0 -- -- 79
2020-09-02 06:00:00 11.5 10 Este 15 Nordeste 0 -- -- 73
2020-09-02 05:00:00 12.3 7 Este 13 Este 0 -- -- 66
2020-09-02 04:00:00 12.9 8 Nordeste 16 Nordeste 0 -- -- 53
2020-09-02 03:00:00 11.3 10 Este 15 Este 0 -- -- 57
2020-09-02 02:00:00 14.3 4 Oeste 11 Sudoeste 0 -- -- 52
2020-09-02 01:00:00 15.7 8 Sudoeste 16 Sudoeste 0 -- -- 47
2020-09-02 00:00:00 15.5 0 Calma 8 Nordeste 0 -- -- 45
2020-09-01 23:00:00 16.6 0 Calma 0 Calma 0 -- -- 41
2020-09-01 22:00:00 19.3 0 Calma 11 Noroeste 0 -- -- 37
2020-09-01 21:00:00 23 7 Noroeste 13 Noroeste 0 -- -- 31
2020-09-01 20:00:00 25.8 6 Noroeste 15 Norte 0 -- -- 26
2020-09-01 19:00:00 26.3 9 Oeste 19 Noroeste 0 -- -- 23
2020-09-01 18:00:00 26.4 7 Noroeste 23 Norte 0 -- -- 22
2020-09-01 17:00:00 25.8 9 Noroeste 23 Noroeste 0 -- -- 21
2020-09-01 16:00:00 25.3 10 Noroeste 23 Oeste 0 -- -- 22
2020-09-01 15:00:00 25.9 10 Noroeste 20 Noroeste 0 -- -- 22
2020-09-01 14:00:00 24.6 10 Oeste 25 Sudoeste 0 -- -- 24
2020-09-01 13:00:00 23.5 8 Oeste 15 Sudoeste 0 -- -- 26
2020-09-01 12:00:00 21.6 8 Noroeste 13 Oeste 0 -- -- 27
2020-09-01 11:00:00 19.6 3 Nordeste 7 Norte 0 -- -- 31
2020-09-01 10:00:00 16.6 0 Calma 6 Sudeste 0 -- -- 35
2020-09-01 09:00:00 11.9 0 Calma 8 Sudeste 0 -- -- 45
2020-09-01 08:00:00 11.9 0 Calma 10 Sudeste 0 -- -- 42
2020-09-01 07:00:00 12.5 7 Este 9 Nordeste 0 -- -- 41
2020-09-01 06:00:00 14 5 Sudeste 12 Sudeste 0 -- -- 37
2020-09-01 05:00:00 13.2 3 Sudeste 12 Este 0 -- -- 38
2020-09-01 04:00:00 12.7 6 Noroeste 10 Noroeste 0 -- -- 40
2020-09-01 03:00:00 14.4 2 Sudoeste 10 Sudeste 0 -- -- 33
2020-09-01 02:00:00 14.5 8 Sudeste 13 Sudeste 0 -- -- 32
2020-09-01 01:00:00 14.6 9 Sudeste 13 Sudeste 0 -- -- 31
2020-09-01 00:00:00 15.4 9 Sudeste 12 Sudeste 0 -- -- 29
2020-08-31 23:00:00 15.8 4 Sudeste 6 Sudeste 0 -- -- 29
2020-08-31 22:00:00 17.5 3 Norte 9 Norte 0 -- -- 26
2020-08-31 21:00:00 20.3 8 Norte 17 Noroeste 0 -- -- 22
2020-08-31 20:00:00 23.6 13 Noroeste 22 Noroeste 0 -- -- 20
2020-08-31 19:00:00 24.8 14 Noroeste 22 Norte 0 -- -- 23
2020-08-31 18:00:00 25.5 12 Noroeste 27 Noroeste 0 -- -- 22
2020-08-31 17:00:00 25.2 15 Oeste 26 Oeste 0 -- -- 23
2020-08-31 16:00:00 24.6 12 Oeste 28 Oeste 0 -- -- 22
2020-08-31 15:00:00 23 9 Oeste 26 Oeste 0 -- -- 27
2020-08-31 14:00:00 21.2 7 Noroeste 26 Oeste 0 -- -- 30
2020-08-31 13:00:00 21 9 Oeste 18 Oeste 0 -- -- 30
2020-08-31 12:00:00 19.2 5 Oeste 11 Sudoeste 0 -- -- 35
2020-08-31 11:00:00 16.3 6 Este 12 Nordeste 0 -- -- 42
2020-08-31 10:00:00 12.6 9 Este 15 Este 0 -- -- 53
2020-08-31 09:00:00 9.2 9 Nordeste 14 Este 0 -- -- 65
2020-08-31 08:00:00 5.6 6 Nordeste 9 Nordeste 0 -- -- 71
2020-08-31 07:00:00 6.5 4 Este 12 Este 0 -- -- 65
2020-08-31 06:00:00 7.4 11 Este 17 Este 0 -- -- 63
2020-08-31 05:00:00 8.4 15 Este 18 Este 0 -- -- 60
2020-08-31 04:00:00 8.6 10 Este 15 Este 0 -- -- 58
2020-08-31 03:00:00 8.9 10 Este 14 Este 0 -- -- 57
2020-08-31 02:00:00 10.1 7 Sudeste 12 Este 0 -- -- 53
2020-08-31 01:00:00 10.3 4 Este 11 Este 0 -- -- 50
2020-08-31 00:00:00 12.2 7 Sudeste 12 Este 0 -- -- 47
2020-08-30 23:00:00 13.3 7 Este 13 Este 0 -- -- 44
2020-08-30 22:00:00 14 8 Este 16 Nordeste 0 -- -- 42
2020-08-30 21:00:00 17.2 12 Nordeste 24 Nordeste 0 -- -- 36
2020-08-30 20:00:00 19.5 17 Nordeste 27 Nordeste 0 -- -- 32
2020-08-30 19:00:00 20.4 15 Nordeste 28 Nordeste 0 -- -- 30
2020-08-30 18:00:00 20.7 13 Nordeste 40 Este 0 -- -- 30
2020-08-30 17:00:00 20.4 8 Norte 28 Norte 0 -- -- 32
2020-08-30 16:00:00 19.6 13 Norte 27 Norte 0 -- -- 33
2020-08-30 15:00:00 19 10 Norte 31 Nordeste 0 -- -- 36
2020-08-30 14:00:00 18.2 13 Nordeste 28 Nordeste 0 -- -- 40
2020-08-30 13:00:00 17.3 18 Nordeste 34 Este 0 -- -- 43
2020-08-30 12:00:00 16.3 20 Nordeste 33 Nordeste 0 -- -- 46
2020-08-30 11:00:00 14.9 22 Nordeste 32 Nordeste 0 -- -- 52
2020-08-30 10:00:00 12.5 17 Nordeste 24 Nordeste 0 -- -- 62
2020-08-30 09:00:00 8.6 6 Nordeste 10 Nordeste 0 -- -- 81
2020-08-30 08:00:00 5.3 4 Este 7 Este 0 -- -- 89
2020-08-30 07:00:00 6 4 Nordeste 8 Nordeste 0 -- -- 86
2020-08-30 06:00:00 6.7 5 Nordeste 8 Nordeste 0 -- -- 84
2020-08-30 05:00:00 7.4 8 Nordeste 11 Este 0 -- -- 79
2020-08-30 04:00:00 9.3 9 Nordeste 14 Nordeste 0 -- -- 74
2020-08-30 03:00:00 10.5 12 Nordeste 19 Este 0 -- -- 69
2020-08-30 02:00:00 10.7 9 Nordeste 18 Nordeste 0 -- -- 69
2020-08-30 01:00:00 12.7 14 Nordeste 22 Nordeste 0 -- -- 63
2020-08-30 00:00:00 13.4 13 Nordeste 21 Nordeste 0 -- -- 64
2020-08-29 23:00:00 15 15 Nordeste 29 Nordeste 0 -- -- 63
2020-08-29 22:00:00 15.8 21 Norte 32 Norte 0.2 -- -- 60
2020-08-29 21:00:00 17.4 3 Nordeste 37 Oeste 0 -- -- 53
2020-08-29 20:00:00 19.9 16 Noroeste 30 Norte 0 -- -- 37
2020-08-29 19:00:00 20.7 13 Noroeste 25 Norte 0 -- -- 36
2020-08-29 18:00:00 19.4 22 Norte 38 Noroeste 0 -- -- 39
2020-08-29 17:00:00 20.9 20 Norte 40 Norte 0 -- -- 37
2020-08-29 16:00:00 21.2 16 Noroeste 36 Norte 0 -- -- 34
2020-08-29 15:00:00 20.2 17 Norte 31 Norte 0 -- -- 36
2020-08-29 14:00:00 19.4 18 Norte 33 Norte 0 -- -- 40
2020-08-29 13:00:00 17.9 16 Norte 28 Noroeste 0 -- -- 45
2020-08-29 12:00:00 16.6 16 Norte 30 Norte 0 -- -- 50
2020-08-29 11:00:00 15.1 13 Noroeste 22 Noroeste 0 -- -- 58
2020-08-29 10:00:00 12.3 7 Norte 14 Norte 0 -- -- 71
2020-08-29 09:00:00 9.4 0 Calma 7 Noroeste 0 -- -- 77
2020-08-29 08:00:00 6.2 0 Calma 3 Norte 0 -- -- 81
2020-08-29 07:00:00 7.4 0 Calma 4 Nordeste 0 -- -- 79
2020-08-29 06:00:00 7.5 5 Norte 12 Norte 0 -- -- 78
2020-08-29 05:00:00 8.4 6 Norte 9 Norte 0 -- -- 74
2020-08-29 04:00:00 9 6 Norte 9 Norte 0 -- -- 71
2020-08-29 03:00:00 10.2 5 Norte 13 Noroeste 0 -- -- 65
2020-08-29 02:00:00 11.6 9 Noroeste 21 Noroeste 0 -- -- 60
2020-08-29 01:00:00 13.7 13 Noroeste 30 Norte 0 -- -- 55
2020-08-29 00:00:00 14.4 11 Norte 21 Norte 0 -- -- 56
2020-08-28 23:00:00 16.4 12 Noroeste 31 Noroeste 0 -- -- 49
2020-08-28 22:00:00 17.9 13 Noroeste 32 Noroeste 0 -- -- 45
2020-08-28 21:00:00 19.4 19 Noroeste 37 Noroeste 0 -- -- 41
2020-08-28 20:00:00 21.3 22 Noroeste 35 Noroeste 0 -- -- 37
2020-08-28 19:00:00 23.9 21 Noroeste 37 Noroeste 0 -- -- 30
2020-08-28 18:00:00 24.4 20 Noroeste 41 Noroeste 0 -- -- 26
2020-08-28 17:00:00 24.4 23 Noroeste 41 Noroeste 0 -- -- 21
2020-08-28 16:00:00 24.6 21 Noroeste 32 Oeste 0 -- -- 23
2020-08-28 15:00:00 24.3 21 Noroeste 35 Noroeste 0 -- -- 28
2020-08-28 14:00:00 23.7 18 Noroeste 33 Noroeste 0 -- -- 35
2020-08-28 13:00:00 22.8 14 Oeste 39 Oeste 0 -- -- 42
2020-08-28 12:00:00 20.9 12 Oeste 26 Oeste 0 -- -- 59
2020-08-28 11:00:00 19.3 10 Oeste 22 Noroeste 0 -- -- 66
2020-08-28 10:00:00 17.5 10 Oeste 21 Oeste 0 -- -- 84
2020-08-28 09:00:00 16.6 8 Oeste 17 Sudoeste 0 -- -- 92
2020-08-28 08:00:00 15 8 Sudoeste 12 Oeste 0 -- -- 93
2020-08-28 07:00:00 15.2 7 Sudoeste 12 Sudoeste 0 -- -- 93
2020-08-28 06:00:00 15.6 5 Sudoeste 9 Sudoeste 0 -- -- 92
2020-08-28 05:00:00 15.9 6 Sudoeste 13 Sudoeste 0 -- -- 90
2020-08-28 04:00:00 17.1 9 Sudoeste 14 Sudoeste 0 -- -- 87
2020-08-28 03:00:00 18.1 9 Sudoeste 16 Oeste 0 -- -- 82
2020-08-28 02:00:00 19.3 11 Oeste 15 Oeste 0 -- -- 78
2020-08-28 01:00:00 20.8 10 Oeste 15 Oeste 0 -- -- 69
2020-08-28 00:00:00 21.8 4 Oeste 16 Oeste 0 -- -- 66
2020-08-27 23:00:00 23.5 12 Oeste 23 Oeste 0 -- -- 61
2020-08-27 22:00:00 25.4 14 Oeste 25 Oeste 0 -- -- 54
2020-08-27 21:00:00 27.8 17 Noroeste 30 Oeste 0 -- -- 44
2020-08-27 20:00:00 30.2 19 Noroeste 30 Oeste 0 -- -- 30
2020-08-27 19:00:00 31.5 17 Noroeste 29 Noroeste 0 -- -- 27
2020-08-27 18:00:00 32.3 15 Oeste 26 Oeste 0 -- -- 28
2020-08-27 17:00:00 32.3 12 Oeste 24 Oeste 0 -- -- 29
2020-08-27 16:00:00 31.9 9 Noroeste 22 Oeste 0 -- -- 31
2020-08-27 15:00:00 30.8 8 Norte 21 Noroeste 0 -- -- 37
2020-08-27 14:00:00 29.4 9 Oeste 18 Norte 0 -- -- 43
2020-08-27 13:00:00 27.9 8 Norte 15 Norte 0 -- -- 49
2020-08-27 12:00:00 26.4 7 Norte 17 Noroeste 0 -- -- 53
2020-08-27 11:00:00 24 8 Noroeste 13 Noroeste 0 -- -- 62
2020-08-27 10:00:00 21.8 3 Norte 7 Oeste 0 -- -- 75
2020-08-27 09:00:00 19.3 0 Calma 5 Sudoeste 0 -- -- 84
2020-08-27 08:00:00 16.3 5 Sur 8 Sudeste 0 -- -- 82
2020-08-27 07:00:00 17.7 3 Sudoeste 7 Sudoeste 0 -- -- 79
2020-08-27 06:00:00 17.8 4 Sudoeste 7 Sudoeste 0 -- -- 78
2020-08-27 05:00:00 18.7 6 Sudoeste 9 Sur 0 -- -- 73
2020-08-27 04:00:00 19.5 7 Sur 10 Sur -- -- -- 68
2020-08-27 03:00:00 20.4 6 Sudoeste 10 Sur 0 -- -- 64
2020-08-27 02:00:00 20.8 7 Sur 10 Sudoeste 0 -- -- 58
2020-08-27 01:00:00 21.8 7 Sur 9 Sudoeste 0 -- -- 50
2020-08-27 00:00:00 21.4 5 Sudoeste 20 Oeste 0 -- -- 40
2020-08-26 23:00:00 21.7 0 Calma 2 Norte 0 -- -- 37
2020-08-26 22:00:00 24.3 0 Calma 9 Oeste 0 -- -- 33
2020-08-26 21:00:00 29.3 7 Noroeste 22 Noroeste 0 -- -- 26
2020-08-26 20:00:00 31.8 17 Noroeste 25 Noroeste 0 -- -- 23
2020-08-26 19:00:00 32.9 16 Noroeste 27 Oeste 0 -- -- 25
2020-08-26 18:00:00 33.6 13 Noroeste 30 Noroeste 0 -- -- 24
2020-08-26 17:00:00 33.2 13 Oeste 25 Noroeste 0 -- -- 25
2020-08-26 16:00:00 32.7 10 Noroeste 24 Oeste 0 -- -- 27
2020-08-26 15:00:00 32 8 Norte 20 Noroeste 0 -- -- 29
2020-08-26 14:00:00 31.3 9 Oeste 16 Oeste 0 -- -- 28
2020-08-26 13:00:00 29.4 7 Norte 17 Este 0 -- -- 32
2020-08-26 12:00:00 27.4 5 Norte 12 Norte 0 -- -- 38
2020-08-26 11:00:00 24.5 5 Nordeste 10 Nordeste 0 -- -- 44
2020-08-26 10:00:00 21.1 3 Este 7 Nordeste 0 -- -- 48
2020-08-26 09:00:00 15.1 0 Calma 4 Norte 0 -- -- 60
2020-08-26 08:00:00 12.1 0 Calma 7 Este 0 -- -- 64
2020-08-26 07:00:00 13.2 0 Calma 12 Sudeste 0 -- -- 59
2020-08-26 06:00:00 15 9 Sudeste 12 Sudeste 0 -- -- 54
2020-08-26 05:00:00 15.4 5 Sudeste 11 Sudeste 0 -- -- 55
2020-08-26 04:00:00 15.8 3 Sudeste 7 Sudeste 0 -- -- 57
2020-08-26 03:00:00 17.6 4 Sur 8 Sur 0 -- -- 53
2020-08-26 02:00:00 18.4 7 Sur 10 Sur 0 -- -- 47
2020-08-26 01:00:00 19.1 7 Sur 9 Sur 0 -- -- 36
2020-08-26 00:00:00 20.7 0 Calma -- -- 0 -- -- 30
2020-08-25 23:00:00 20.1 0 Calma -- -- 0 -- -- 30
2020-08-25 22:00:00 24.6 0 Calma 10 Noroeste 0 -- -- 23
2020-08-25 21:00:00 28.5 9 Noroeste 22 Noroeste 0 -- -- 19
2020-08-25 20:00:00 31.3 18 Noroeste 27 Noroeste 0 -- -- 20
2020-08-25 19:00:00 32.9 18 Noroeste 28 Noroeste 0 -- -- 19
2020-08-25 18:00:00 33.5 14 Noroeste 37 Noroeste 0 -- -- 19
2020-08-25 17:00:00 33.5 15 Oeste 34 Sudoeste 0 -- -- 18
2020-08-25 16:00:00 33 17 Sudoeste 30 Oeste 0 -- -- 19
2020-08-25 15:00:00 32 13 Oeste 25 Oeste 0 -- -- 25
2020-08-25 14:00:00 30.1 10 Oeste 23 Sudoeste 0 -- -- 27
2020-08-25 13:00:00 28.3 6 Oeste 15 Noroeste 0 -- -- 30
2020-08-25 12:00:00 26.6 5 Noroeste 17 Norte 0 -- -- 33
2020-08-25 11:00:00 24.1 7 Noroeste 13 Noroeste 0 -- -- 45
2020-08-25 10:00:00 21.7 4 Oeste 8 Oeste 0 -- -- 52
2020-08-25 09:00:00 18.2 4 Sur 8 Sur 0 -- -- 60
2020-08-25 08:00:00 14.7 6 Sur 9 Sur 0 -- -- 67
2020-08-25 07:00:00 14.9 5 Sur 9 Sur 0 -- -- 65
2020-08-25 06:00:00 14.5 6 Sur 9 Sur 0 -- -- 63
2020-08-25 05:00:00 13.7 0 Calma 6 Sur 0 -- -- 62
2020-08-25 04:00:00 15.2 5 Sudoeste 11 Sudeste 0 -- -- 58
2020-08-25 03:00:00 16.3 8 Sudeste 9 Sudeste 0 -- -- 55
2020-08-25 02:00:00 17.5 3 Sur 10 Sudeste 0 -- -- 51
2020-08-25 01:00:00 18.6 8 Sudeste 9 Sudeste 0 -- -- 48
2020-08-25 00:00:00 19.2 0 Calma 14 Noroeste 0 -- -- 46
2020-08-24 23:00:00 22.6 2 Este 6 Este 0 -- -- 39
2020-08-24 22:00:00 24.3 3 Norte 11 Noroeste 0 -- -- 35
2020-08-24 21:00:00 28.1 9 Noroeste 19 Noroeste 0 -- -- 29
2020-08-24 20:00:00 30.9 11 Noroeste 19 Noroeste 0 -- -- 25
2020-08-24 19:00:00 31.8 10 Noroeste 23 Noroeste 0 -- -- 23
2020-08-24 18:00:00 32.1 12 Noroeste 23 Noroeste 0 -- -- 23
2020-08-24 17:00:00 31.4 9 Norte 22 Norte 0 -- -- 24
2020-08-24 16:00:00 30.9 8 Oeste 19 Noroeste 0 -- -- 25
2020-08-24 15:00:00 30.3 9 Norte 22 Norte 0 -- -- 28
2020-08-24 14:00:00 28.9 14 Nordeste 25 Nordeste 0 -- -- 31
2020-08-24 13:00:00 27.6 14 Nordeste 24 Nordeste 0 -- -- 34
2020-08-24 12:00:00 25.1 15 Nordeste 22 Nordeste 0 -- -- 41
2020-08-24 11:00:00 22.1 12 Nordeste 21 Este 0 -- -- 48
2020-08-24 10:00:00 18.5 15 Este 27 Este 0 -- -- 59
2020-08-24 09:00:00 16 15 Este 22 Nordeste 0 -- -- 66
2020-08-24 08:00:00 14 13 Este 18 Este 0 -- -- 66
2020-08-24 07:00:00 14.3 10 Este 17 Este 0 -- -- 65
2020-08-24 06:00:00 14 10 Nordeste 15 Nordeste 0 -- -- 59
2020-08-24 05:00:00 14.5 9 Este 14 Este 0 -- -- 56
2020-08-24 04:00:00 13.2 3 Norte 11 Norte 0 -- -- 58
2020-08-24 03:00:00 14.1 2 Nordeste 5 Este 0 -- -- 55
2020-08-24 02:00:00 14.7 0 Calma -- -- 0 -- -- 53
2020-08-24 01:00:00 16.2 0 Calma 12 Este 0 -- -- 49
2020-08-24 00:00:00 19.7 11 Este 13 Este 0 -- -- 41